sensor_id;sensor_type;location;lat;lon;timestamp;pressure;altitude;pressure_sealevel;temperature;humidity
25560;BME280;13450;49.374;8.584;2023-03-16T00:00:54;101007.09;;;-0.11;100.00
25560;BME280;13450;49.374;8.584;2023-03-16T00:03:19;101007.31;;;-0.15;100.00
25560;BME280;13450;49.374;8.584;2023-03-16T00:05:49;101016.34;;;-0.19;100.00
25560;BME280;13450;49.374;8.584;2023-03-16T00:08:16;101011.84;;;-0.17;100.00
25560;BME280;13450;49.374;8.584;2023-03-16T00:10:42;101016.03;;;-0.14;100.00
25560;BME280;13450;49.374;8.584;2023-03-16T00:13:21;101021.56;;;-0.04;100.00
25560;BME280;13450;49.374;8.584;2023-03-16T00:15:55;101008.94;;;0.01;100.00
25560;BME280;13450;49.374;8.584;2023-03-16T00:18:22;101012.28;;;0.03;100.00
25560;BME280;13450;49.374;8.584;2023-03-16T00:20:52;101023.25;;;0.10;100.00
25560;BME280;13450;49.374;8.584;2023-03-16T00:23:19;101027.69;;;0.09;100.00
25560;BME280;13450;49.374;8.584;2023-03-16T00:28:21;101018.09;;;0.08;100.00
25560;BME280;13450;49.374;8.584;2023-03-16T00:30:46;101020.00;;;0.06;100.00
25560;BME280;13450;49.374;8.584;2023-03-16T00:33:12;101020.94;;;0.05;100.00
25560;BME280;13450;49.374;8.584;2023-03-16T00:35:37;101023.69;;;0.04;100.00
25560;BME280;13450;49.374;8.584;2023-03-16T00:38:03;101015.69;;;0.05;100.00
25560;BME280;13450;49.374;8.584;2023-03-16T00:40:28;101020.94;;;0.05;100.00
25560;BME280;13450;49.374;8.584;2023-03-16T00:42:55;101020.59;;;-0.03;100.00
25560;BME280;13450;49.374;8.584;2023-03-16T00:45:20;101015.19;;;-0.15;100.00
25560;BME280;13450;49.374;8.584;2023-03-16T00:47:48;101014.13;;;-0.25;100.00
25560;BME280;13450;49.374;8.584;2023-03-16T00:50:18;101019.56;;;-0.28;100.00
25560;BME280;13450;49.374;8.584;2023-03-16T00:52:46;101010.50;;;-0.37;100.00
25560;BME280;13450;49.374;8.584;2023-03-16T00:55:12;101003.00;;;-0.43;100.00
25560;BME280;13450;49.374;8.584;2023-03-16T00:57:37;101005.84;;;-0.46;100.00
25560;BME280;13450;49.374;8.584;2023-03-16T01:00:04;101005.75;;;-0.45;100.00
25560;BME280;13450;49.374;8.584;2023-03-16T01:02:37;101001.53;;;-0.47;100.00
25560;BME280;13450;49.374;8.584;2023-03-16T01:05:03;101000.59;;;-0.46;100.00
25560;BME280;13450;49.374;8.584;2023-03-16T01:07:30;100996.47;;;-0.50;100.00
25560;BME280;13450;49.374;8.584;2023-03-16T01:09:56;101004.84;;;-0.58;100.00
25560;BME280;13450;49.374;8.584;2023-03-16T01:12:24;100996.19;;;-0.60;100.00
25560;BME280;13450;49.374;8.584;2023-03-16T01:14:52;100990.75;;;-0.57;100.00
25560;BME280;13450;49.374;8.584;2023-03-16T01:17:17;100997.78;;;-0.58;100.00
25560;BME280;13450;49.374;8.584;2023-03-16T01:19:44;101001.38;;;-0.59;100.00
25560;BME280;13450;49.374;8.584;2023-03-16T01:22:10;100980.25;;;-0.57;100.00
25560;BME280;13450;49.374;8.584;2023-03-16T01:24:36;100983.41;;;-0.52;100.00
25560;BME280;13450;49.374;8.584;2023-03-16T01:27:02;100981.63;;;-0.51;100.00
25560;BME280;13450;49.374;8.584;2023-03-16T01:29:31;100979.28;;;-0.56;100.00
25560;BME280;13450;49.374;8.584;2023-03-16T01:31:57;100968.88;;;-0.58;100.00
25560;BME280;13450;49.374;8.584;2023-03-16T01:34:22;100972.34;;;-0.57;100.00
25560;BME280;13450;49.374;8.584;2023-03-16T01:36:49;100979.09;;;-0.53;100.00
25560;BME280;13450;49.374;8.584;2023-03-16T01:39:18;100983.94;;;-0.47;100.00
25560;BME280;13450;49.374;8.584;2023-03-16T01:41:45;100984.91;;;-0.48;100.00
25560;BME280;13450;49.374;8.584;2023-03-16T01:44:18;100983.94;;;-0.47;100.00
25560;BME280;13450;49.374;8.584;2023-03-16T01:46:44;100980.38;;;-0.46;100.00
25560;BME280;13450;49.374;8.584;2023-03-16T01:49:11;100989.66;;;-0.40;100.00
25560;BME280;13450;49.374;8.584;2023-03-16T01:51:54;100970.94;;;-0.35;100.00
25560;BME280;13450;49.374;8.584;2023-03-16T01:54:35;100986.50;;;-0.32;100.00
25560;BME280;13450;49.374;8.584;2023-03-16T01:59:31;100975.59;;;-0.26;100.00
25560;BME280;13450;49.374;8.584;2023-03-16T02:01:56;100964.84;;;-0.23;100.00
25560;BME280;13450;49.374;8.584;2023-03-16T02:04:35;100968.88;;;-0.17;100.00
25560;BME280;13450;49.374;8.584;2023-03-16T02:07:04;100965.19;;;-0.15;100.00
25560;BME280;13450;49.374;8.584;2023-03-16T02:09:32;100964.06;;;-0.10;100.00
25560;BME280;13450;49.374;8.584;2023-03-16T02:12:01;100960.47;;;-0.09;100.00
25560;BME280;13450;49.374;8.584;2023-03-16T02:14:29;100959.44;;;-0.07;100.00
25560;BME280;13450;49.374;8.584;2023-03-16T02:16:57;100955.00;;;-0.06;100.00
25560;BME280;13450;49.374;8.584;2023-03-16T02:19:34;100956.50;;;-0.02;100.00
25560;BME280;13450;49.374;8.584;2023-03-16T02:22:07;100952.72;;;0.02;100.00
25560;BME280;13450;49.374;8.584;2023-03-16T02:24:35;100951.34;;;0.09;100.00
25560;BME280;13450;49.374;8.584;2023-03-16T02:27:06;100946.09;;;0.09;100.00
25560;BME280;13450;49.374;8.584;2023-03-16T02:29:49;100942.59;;;0.09;100.00
25560;BME280;13450;49.374;8.584;2023-03-16T02:32:19;100939.88;;;0.10;100.00
25560;BME280;13450;49.374;8.584;2023-03-16T02:34:45;100940.81;;;0.09;100.00
25560;BME280;13450;49.374;8.584;2023-03-16T02:37:10;100948.72;;;0.09;100.00
25560;BME280;13450;49.374;8.584;2023-03-16T02:39:36;100942.59;;;0.09;100.00
25560;BME280;13450;49.374;8.584;2023-03-16T02:42:01;100936.38;;;0.10;100.00
25560;BME280;13450;49.374;8.584;2023-03-16T02:44:31;100933.75;;;0.10;100.00
25560;BME280;13450;49.374;8.584;2023-03-16T02:47:04;100930.31;;;0.09;100.00
25560;BME280;13450;49.374;8.584;2023-03-16T02:49:39;100928.59;;;0.08;100.00
25560;BME280;13450;49.374;8.584;2023-03-16T02:52:07;100933.66;;;0.11;100.00
25560;BME280;13450;49.374;8.584;2023-03-16T02:54:33;100934.38;;;0.13;100.00
25560;BME280;13450;49.374;8.584;2023-03-16T02:57:02;100938.81;;;0.13;100.00
25560;BME280;13450;49.374;8.584;2023-03-16T02:59:27;100929.34;;;0.10;100.00
25560;BME280;13450;49.374;8.584;2023-03-16T03:01:53;100928.59;;;0.08;100.00
25560;BME280;13450;49.374;8.584;2023-03-16T03:04:18;100920.06;;;0.05;100.00
25560;BME280;13450;49.374;8.584;2023-03-16T03:06:44;100924.47;;;0.04;100.00
25560;BME280;13450;49.374;8.584;2023-03-16T03:09:12;100917.53;;;0.03;100.00
25560;BME280;13450;49.374;8.584;2023-03-16T03:11:40;100920.94;;;0.05;100.00
25560;BME280;13450;49.374;8.584;2023-03-16T03:14:08;100912.06;;;0.06;100.00
25560;BME280;13450;49.374;8.584;2023-03-16T03:16:33;100908.28;;;0.10;100.00
25560;BME280;13450;49.374;8.584;2023-03-16T03:18:58;100906.19;;;0.16;100.00
25560;BME280;13450;49.374;8.584;2023-03-16T03:21:24;100899.75;;;0.20;100.00
25560;BME280;13450;49.374;8.584;2023-03-16T03:23:49;100905.66;;;0.23;100.00
25560;BME280;13450;49.374;8.584;2023-03-16T03:26:16;100903.88;;;0.24;100.00
25560;BME280;13450;49.374;8.584;2023-03-16T03:28:42;100905.53;;;0.25;100.00
25560;BME280;13450;49.374;8.584;2023-03-16T03:31:20;100900.28;;;0.25;100.00
25560;BME280;13450;49.374;8.584;2023-03-16T03:33:45;100897.75;;;0.23;100.00
25560;BME280;13450;49.374;8.584;2023-03-16T03:36:13;100909.13;;;0.24;100.00
25560;BME280;13450;49.374;8.584;2023-03-16T03:38:39;100900.28;;;0.25;100.00
25560;BME280;13450;49.374;8.584;2023-03-16T03:41:04;100894.81;;;0.28;100.00
25560;BME280;13450;49.374;8.584;2023-03-16T03:43:32;100895.63;;;0.29;100.00
25560;BME280;13450;49.374;8.584;2023-03-16T03:46:01;100893.09;;;0.27;100.00
25560;BME280;13450;49.374;8.584;2023-03-16T03:48:27;100896.47;;;0.29;100.00
25560;BME280;13450;49.374;8.584;2023-03-16T03:50:53;100899.84;;;0.31;100.00
25560;BME280;13450;49.374;8.584;2023-03-16T03:53:19;100903.22;;;0.33;100.00
25560;BME280;13450;49.374;8.584;2023-03-16T03:55:46;100899.00;;;0.31;100.00
25560;BME280;13450;49.374;8.584;2023-03-16T03:58:13;100902.47;;;0.31;100.00
25560;BME280;13450;49.374;8.584;2023-03-16T04:00:41;100899.22;;;0.28;100.00
25560;BME280;13450;49.374;8.584;2023-03-16T04:03:07;100897.53;;;0.27;100.00
25560;BME280;13450;49.374;8.584;2023-03-16T04:05:32;100898.38;;;0.27;100.00
25560;BME280;13450;49.374;8.584;2023-03-16T04:07:58;100895.63;;;0.29;100.00
25560;BME280;13450;49.374;8.584;2023-03-16T04:10:24;100882.38;;;0.30;100.00
25560;BME280;13450;49.374;8.584;2023-03-16T04:12:52;100890.88;;;0.34;100.00
25560;BME280;13450;49.374;8.584;2023-03-16T04:15:18;100881.94;;;0.36;100.00
25560;BME280;13450;49.374;8.584;2023-03-16T04:17:43;100884.34;;;0.39;100.00
25560;BME280;13450;49.374;8.584;2023-03-16T04:20:09;100886.97;;;0.39;100.00
25560;BME280;13450;49.374;8.584;2023-03-16T04:22:41;100888.66;;;0.41;100.00
25560;BME280;13450;49.374;8.584;2023-03-16T04:25:12;100885.09;;;0.42;100.00
25560;BME280;13450;49.374;8.584;2023-03-16T04:27:39;100883.38;;;0.41;100.00
25560;BME280;13450;49.374;8.584;2023-03-16T04:30:08;100891.44;;;0.39;100.00
25560;BME280;13450;49.374;8.584;2023-03-16T04:32:35;100892.69;;;0.33;100.00
25560;BME280;13450;49.374;8.584;2023-03-16T04:35:00;100895.63;;;0.29;100.00
25560;BME280;13450;49.374;8.584;2023-03-16T04:37:26;100894.16;;;0.24;100.00
25560;BME280;13450;49.374;8.584;2023-03-16T04:39:51;100895.31;;;0.20;100.00
25560;BME280;13450;49.374;8.584;2023-03-16T04:42:16;100892.91;;;0.17;100.00
25560;BME280;13450;49.374;8.584;2023-03-16T04:44:42;100890.59;;;0.12;100.00
25560;BME280;13450;49.374;8.584;2023-03-16T04:47:15;100898.72;;;0.09;100.00
25560;BME280;13450;49.374;8.584;2023-03-16T04:49:41;100886.47;;;0.08;100.00
25560;BME280;13450;49.374;8.584;2023-03-16T04:52:07;100890.91;;;0.08;100.00
25560;BME280;13450;49.374;8.584;2023-03-16T04:54:32;100886.81;;;0.04;100.00
25560;BME280;13450;49.374;8.584;2023-03-16T04:56:58;100883.31;;;0.03;100.00
25560;BME280;13450;49.374;8.584;2023-03-16T04:59:28;100885.94;;;0.03;100.00
25560;BME280;13450;49.374;8.584;2023-03-16T05:01:53;100882.59;;;0.01;100.00
25560;BME280;13450;49.374;8.584;2023-03-16T05:04:18;100887.88;;;0.01;100.00
25560;BME280;13450;49.374;8.584;2023-03-16T05:06:44;100881.75;;;0.01;100.00
25560;BME280;13450;49.374;8.584;2023-03-16T05:09:09;100880.91;;;0.00;100.00
25560;BME280;13450;49.374;8.584;2023-03-16T05:11:35;100882.81;;;-0.02;100.00
25560;BME280;13450;49.374;8.584;2023-03-16T05:14:00;100880.28;;;-0.04;100.00
25560;BME280;13450;49.374;8.584;2023-03-16T05:16:29;100880.91;;;0.00;100.00
25560;BME280;13450;49.374;8.584;2023-03-16T05:18:59;100871.31;;;-0.01;100.00
25560;BME280;13450;49.374;8.584;2023-03-16T05:21:25;100880.91;;;0.00;100.00
25560;BME280;13450;49.374;8.584;2023-03-16T05:23:58;100872.91;;;0.02;100.00
25560;BME280;13450;49.374;8.584;2023-03-16T05:26:23;100872.91;;;0.02;100.00
25560;BME280;13450;49.374;8.584;2023-03-16T05:28:51;100865.84;;;0.02;100.00
25560;BME280;13450;49.374;8.584;2023-03-16T05:31:17;100857.97;;;0.02;100.00
25560;BME280;13450;49.374;8.584;2023-03-16T05:33:43;100858.81;;;0.03;100.00
25560;BME280;13450;49.374;8.584;2023-03-16T05:36:09;100860.50;;;0.04;100.00
25560;BME280;13450;49.374;8.584;2023-03-16T05:38:35;100863.84;;;0.06;100.00
25560;BME280;13450;49.374;8.584;2023-03-16T05:41:01;100863.03;;;0.05;100.00
25560;BME280;13450;49.374;8.584;2023-03-16T05:43:29;100856.06;;;0.04;100.00
25560;BME280;13450;49.374;8.584;2023-03-16T05:45:55;100857.75;;;0.05;100.00
25560;BME280;13450;49.374;8.584;2023-03-16T05:48:23;100859.44;;;0.06;100.00
25560;BME280;13450;49.374;8.584;2023-03-16T05:50:52;100852.25;;;0.08;100.00
25560;BME280;13450;49.374;8.584;2023-03-16T05:53:18;100845.31;;;0.07;100.00
25560;BME280;13450;49.374;8.584;2023-03-16T05:55:50;100847.94;;;0.07;100.00
25560;BME280;13450;49.374;8.584;2023-03-16T05:58:15;100847.00;;;0.08;100.00
25560;BME280;13450;49.374;8.584;2023-03-16T06:00:41;100848.47;;;0.12;100.00
25560;BME280;13450;49.374;8.584;2023-03-16T06:03:06;100844.88;;;0.13;100.00
25560;BME280;13450;49.374;8.584;2023-03-16T06:05:31;100841.31;;;0.15;100.00
25560;BME280;13450;49.374;8.584;2023-03-16T06:07:57;100839.41;;;0.17;100.00
25560;BME280;13450;49.374;8.584;2023-03-16T06:10:23;100839.22;;;0.20;100.00
25560;BME280;13450;49.374;8.584;2023-03-16T06:12:50;100839.81;;;0.23;100.00
25560;BME280;13450;49.374;8.584;2023-03-16T06:15:15;100836.88;;;0.28;100.00
25560;BME280;13450;49.374;8.584;2023-03-16T06:17:41;100831.38;;;0.31;100.00
25560;BME280;13450;49.374;8.584;2023-03-16T06:20:08;100825.91;;;0.34;100.00
25560;BME280;13450;49.374;8.584;2023-03-16T06:22:40;100830.97;;;0.37;100.00
25560;BME280;13450;49.374;8.584;2023-03-16T06:25:07;100831.47;;;0.43;100.00
25560;BME280;13450;49.374;8.584;2023-03-16T06:27:34;100827.88;;;0.44;100.00
25560;BME280;13450;49.374;8.584;2023-03-16T06:29:59;100828.63;;;0.46;100.00
25560;BME280;13450;49.374;8.584;2023-03-16T06:32:27;100833.44;;;0.52;100.00
25560;BME280;13450;49.374;8.584;2023-03-16T06:34:52;100835.53;;;0.60;100.00
25560;BME280;13450;49.374;8.584;2023-03-16T06:37:17;100837.84;;;0.64;100.00
25560;BME280;13450;49.374;8.584;2023-03-16T06:39:43;100833.78;;;0.72;100.00
25560;BME280;13450;49.374;8.584;2023-03-16T06:42:09;100833.97;;;0.82;100.00
25560;BME280;13450;49.374;8.584;2023-03-16T06:44:39;100823.81;;;0.88;100.00
25560;BME280;13450;49.374;8.584;2023-03-16T06:47:04;100829.38;;;0.97;100.00
25560;BME280;13450;49.374;8.584;2023-03-16T06:49:29;100832.41;;;1.03;100.00
25560;BME280;13450;49.374;8.584;2023-03-16T06:51:55;100832.81;;;1.10;100.00
25560;BME280;13450;49.374;8.584;2023-03-16T06:54:22;100833.19;;;1.17;100.00
25560;BME280;13450;49.374;8.584;2023-03-16T06:56:48;100841.47;;;1.24;100.00
25560;BME280;13450;49.374;8.584;2023-03-16T06:59:13;100844.63;;;1.29;100.00
25560;BME280;13450;49.374;8.584;2023-03-16T07:01:39;100836.97;;;1.37;100.00
25560;BME280;13450;49.374;8.584;2023-03-16T07:04:06;100838.22;;;1.45;100.00
25560;BME280;13450;49.374;8.584;2023-03-16T07:06:32;100837.63;;;1.52;100.00
25560;BME280;13450;49.374;8.584;2023-03-16T07:08:58;100838.22;;;1.56;100.00
25560;BME280;13450;49.374;8.584;2023-03-16T07:11:26;100846.41;;;1.64;100.00
25560;BME280;13450;49.374;8.584;2023-03-16T07:13:51;100843.41;;;1.69;100.00
25560;BME280;13450;49.374;8.584;2023-03-16T07:16:16;100840.41;;;1.74;100.00
25560;BME280;13450;49.374;8.584;2023-03-16T07:18:42;100849.41;;;1.82;100.00
25560;BME280;13450;49.374;8.584;2023-03-16T07:21:09;100834.19;;;1.86;100.00
25560;BME280;13450;49.374;8.584;2023-03-16T07:23:35;100839.00;;;1.92;100.00
25560;BME280;13450;49.374;8.584;2023-03-16T07:26:01;100841.41;;;1.95;100.00
25560;BME280;13450;49.374;8.584;2023-03-16T07:28:27;100843.69;;;2.00;100.00
25560;BME280;13450;49.374;8.584;2023-03-16T07:30:53;100849.69;;;2.02;100.00
25560;BME280;13450;49.374;8.584;2023-03-16T07:33:19;100844.78;;;2.09;100.00
25560;BME280;13450;49.374;8.584;2023-03-16T07:35:44;100852.09;;;2.17;100.00
25560;BME280;13450;49.374;8.584;2023-03-16T07:38:10;100855.84;;;2.26;100.00
25560;BME280;13450;49.374;8.584;2023-03-16T07:40:38;100843.69;;;2.34;100.00
25560;BME280;13450;49.374;8.584;2023-03-16T07:43:03;100849.09;;;2.44;100.00
25560;BME280;13450;49.374;8.584;2023-03-16T07:45:28;100843.91;;;2.54;100.00
25560;BME280;13450;49.374;8.584;2023-03-16T07:47:55;100854.47;;;2.66;100.00
25560;BME280;13450;49.374;8.584;2023-03-16T07:50:20;100850.50;;;2.71;100.00
25560;BME280;13450;49.374;8.584;2023-03-16T07:52:46;100857.69;;;2.81;100.00
25560;BME280;13450;49.374;8.584;2023-03-16T07:55:12;100862.47;;;2.87;100.00
25560;BME280;13450;49.374;8.584;2023-03-16T07:57:38;100859.91;;;2.97;100.00
25560;BME280;13450;49.374;8.584;2023-03-16T08:00:09;100846.06;;;3.05;100.00
25560;BME280;13450;49.374;8.584;2023-03-16T08:02:34;100849.16;;;3.10;100.00
25560;BME280;13450;49.374;8.584;2023-03-16T08:05:00;100846.97;;;3.15;100.00
25560;BME280;13450;49.374;8.584;2023-03-16T08:07:27;100848.75;;;3.26;100.00
25560;BME280;13450;49.374;8.584;2023-03-16T08:09:53;100840.44;;;3.31;100.00
25560;BME280;13450;49.374;8.584;2023-03-16T08:12:18;100833.81;;;3.36;100.00
25560;BME280;13450;49.374;8.584;2023-03-16T08:14:43;100823.25;;;3.46;100.00
25560;BME280;13450;49.374;8.584;2023-03-16T08:17:10;100834.50;;;3.60;100.00
25560;BME280;13450;49.374;8.584;2023-03-16T08:19:36;100840.22;;;3.65;100.00
25560;BME280;13450;49.374;8.584;2023-03-16T08:22:03;100844.06;;;3.72;100.00
25560;BME280;13450;49.374;8.584;2023-03-16T08:24:30;100836.56;;;3.77;100.00
25560;BME280;13450;49.374;8.584;2023-03-16T08:26:56;100839.38;;;3.86;100.00
25560;BME280;13450;49.374;8.584;2023-03-16T08:29:23;100837.63;;;3.96;100.00
25560;BME280;13450;49.374;8.584;2023-03-16T08:31:49;100833.47;;;4.03;100.00
25560;BME280;13450;49.374;8.584;2023-03-16T08:34:17;100837.53;;;4.08;100.00
25560;BME280;13450;49.374;8.584;2023-03-16T08:36:42;100834.78;;;4.09;100.00
25560;BME280;13450;49.374;8.584;2023-03-16T08:39:08;100840.63;;;4.13;100.00
25560;BME280;13450;49.374;8.584;2023-03-16T08:41:34;100840.81;;;4.21;100.00
25560;BME280;13450;49.374;8.584;2023-03-16T08:43:59;100842.41;;;4.34;100.00
25560;BME280;13450;49.374;8.584;2023-03-16T08:46:25;100833.22;;;4.48;100.00
25560;BME280;13450;49.374;8.584;2023-03-16T08:48:50;100830.19;;;4.62;100.00
25560;BME280;13450;49.374;8.584;2023-03-16T08:51:17;100819.47;;;4.74;100.00
25560;BME280;13450;49.374;8.584;2023-03-16T08:53:43;100817.09;;;4.80;100.00
25560;BME280;13450;49.374;8.584;2023-03-16T08:56:11;100813.63;;;4.90;100.00
25560;BME280;13450;49.374;8.584;2023-03-16T08:58:37;100813.19;;;4.84;100.00
25560;BME280;13450;49.374;8.584;2023-03-16T09:01:04;100817.78;;;4.82;100.00
25560;BME280;13450;49.374;8.584;2023-03-16T09:03:33;100808.47;;;4.78;100.00
25560;BME280;13450;49.374;8.584;2023-03-16T09:06:00;100803.72;;;4.92;100.00
25560;BME280;13450;49.374;8.584;2023-03-16T09:08:27;100809.28;;;5.08;100.00
25560;BME280;13450;49.374;8.584;2023-03-16T09:11:07;100810.25;;;5.27;100.00
25560;BME280;13450;49.374;8.584;2023-03-16T09:13:33;100813.44;;;5.41;100.00
25560;BME280;13450;49.374;8.584;2023-03-16T09:15:59;100792.75;;;5.54;100.00
25560;BME280;13450;49.374;8.584;2023-03-16T09:18:27;100799.16;;;5.61;100.00
25560;BME280;13450;49.374;8.584;2023-03-16T09:20:57;100804.28;;;5.73;100.00
25560;BME280;13450;49.374;8.584;2023-03-16T09:23:23;100809.44;;;5.84;100.00
25560;BME280;13450;49.374;8.584;2023-03-16T09:25:48;100803.25;;;5.94;100.00
25560;BME280;13450;49.374;8.584;2023-03-16T09:28:15;100801.16;;;6.07;100.00
25560;BME280;13450;49.374;8.584;2023-03-16T09:30:41;100803.16;;;6.23;100.00
25560;BME280;13450;49.374;8.584;2023-03-16T09:33:07;100813.97;;;6.50;100.00
25560;BME280;13450;49.374;8.584;2023-03-16T09:35:36;100821.41;;;6.64;100.00
25560;BME280;13450;49.374;8.584;2023-03-16T09:38:02;100820.22;;;6.77;100.00
25560;BME280;13450;49.374;8.584;2023-03-16T09:40:28;100812.06;;;6.78;100.00
25560;BME280;13450;49.374;8.584;2023-03-16T09:43:14;100803.19;;;7.06;100.00
25560;BME280;13450;49.374;8.584;2023-03-16T09:45:47;100811.47;;;7.21;100.00
25560;BME280;13450;49.374;8.584;2023-03-16T09:48:17;100796.28;;;7.13;100.00
25560;BME280;13450;49.374;8.584;2023-03-16T09:50:48;100798.00;;;7.23;100.00
25560;BME280;13450;49.374;8.584;2023-03-16T09:58:28;100791.44;;;7.35;100.00
25560;BME280;13450;49.374;8.584;2023-03-16T10:06:43;100772.53;;;7.46;100.00
25560;BME280;13450;49.374;8.584;2023-03-16T10:11:59;100780.84;;;7.43;100.00
25560;BME280;13450;49.374;8.584;2023-03-16T10:14:48;100774.97;;;7.58;100.00
25560;BME280;13450;49.374;8.584;2023-03-16T10:17:34;100773.16;;;7.67;100.00
25560;BME280;13450;49.374;8.584;2023-03-16T10:20:05;100773.53;;;7.72;100.00
25560;BME280;13450;49.374;8.584;2023-03-16T10:22:36;100767.09;;;7.83;100.00
25560;BME280;13450;49.374;8.584;2023-03-16T10:25:07;100764.47;;;7.91;100.00
25560;BME280;13450;49.374;8.584;2023-03-16T10:27:38;100768.53;;;8.04;100.00
25560;BME280;13450;49.374;8.584;2023-03-16T10:30:30;100772.59;;;8.24;100.00
25560;BME280;13450;49.374;8.584;2023-03-16T10:33:04;100765.31;;;8.43;100.00
25560;BME280;13450;49.374;8.584;2023-03-16T10:38:49;100768.00;;;8.51;100.00
25560;BME280;13450;49.374;8.584;2023-03-16T10:41:19;100772.72;;;8.66;100.00
25560;BME280;13450;49.374;8.584;2023-03-16T10:46:15;100772.41;;;9.44;100.00
25560;BME280;13450;49.374;8.584;2023-03-16T10:51:59;100760.91;;;11.10;100.00
25560;BME280;13450;49.374;8.584;2023-03-16T10:54:34;100774.31;;;12.09;93.59
25560;BME280;13450;49.374;8.584;2023-03-16T10:59:48;100756.34;;;13.69;70.39
25560;BME280;13450;49.374;8.584;2023-03-16T11:02:19;100753.09;;;14.30;67.73
25560;BME280;13450;49.374;8.584;2023-03-16T11:04:48;100747.84;;;14.84;61.40
25560;BME280;13450;49.374;8.584;2023-03-16T11:07:17;100745.16;;;16.11;59.72
25560;BME280;13450;49.374;8.584;2023-03-16T11:09:43;100740.06;;;17.43;50.88
25560;BME280;13450;49.374;8.584;2023-03-16T11:12:14;100733.38;;;18.21;50.78
25560;BME280;13450;49.374;8.584;2023-03-16T11:14:46;100744.56;;;18.55;44.66
25560;BME280;13450;49.374;8.584;2023-03-16T11:17:17;100749.72;;;18.14;52.41
25560;BME280;13450;49.374;8.584;2023-03-16T11:19:52;100745.81;;;17.03;49.50
25560;BME280;13450;49.374;8.584;2023-03-16T11:22:23;100738.28;;;16.86;50.56
25560;BME280;13450;49.374;8.584;2023-03-16T11:24:56;100744.81;;;15.87;51.15
25560;BME280;13450;49.374;8.584;2023-03-16T11:32:38;100733.13;;;14.86;57.38
25560;BME280;13450;49.374;8.584;2023-03-16T11:35:23;100735.44;;;15.89;54.67
25560;BME280;13450;49.374;8.584;2023-03-16T11:41:35;100731.44;;;15.39;54.88
25560;BME280;13450;49.374;8.584;2023-03-16T11:44:18;100716.69;;;15.55;55.97
25560;BME280;13450;49.374;8.584;2023-03-16T11:46:55;100709.66;;;15.48;53.11
25560;BME280;13450;49.374;8.584;2023-03-16T11:55:04;100707.44;;;15.90;54.35
25560;BME280;13450;49.374;8.584;2023-03-16T12:00:29;100706.97;;;14.60;58.81
25560;BME280;13450;49.374;8.584;2023-03-16T12:06:06;100678.06;;;17.79;50.06
25560;BME280;13450;49.374;8.584;2023-03-16T12:11:27;100693.03;;;19.21;43.19
25560;BME280;13450;49.374;8.584;2023-03-16T12:17:02;100672.66;;;19.07;43.48
25560;BME280;13450;49.374;8.584;2023-03-16T12:20:01;100683.56;;;19.89;40.68
25560;BME280;13450;49.374;8.584;2023-03-16T12:22:34;100674.00;;;21.58;37.53
25560;BME280;13450;49.374;8.584;2023-03-16T12:25:10;100672.41;;;22.07;37.24
25560;BME280;13450;49.374;8.584;2023-03-16T12:27:38;100680.34;;;23.60;35.67
25560;BME280;13450;49.374;8.584;2023-03-16T12:30:20;100676.16;;;24.84;31.01
25560;BME280;13450;49.374;8.584;2023-03-16T12:41:15;100663.81;;;24.81;29.63
25560;BME280;13450;49.374;8.584;2023-03-16T12:48:59;100647.25;;;22.98;30.05
25560;BME280;13450;49.374;8.584;2023-03-16T12:51:36;100640.31;;;23.28;31.03
25560;BME280;13450;49.374;8.584;2023-03-16T12:54:03;100648.94;;;23.09;33.03
25560;BME280;13450;49.374;8.584;2023-03-16T12:56:34;100651.22;;;22.80;30.74
25560;BME280;13450;49.374;8.584;2023-03-16T12:59:03;100639.91;;;23.57;33.72
25560;BME280;13450;49.374;8.584;2023-03-16T13:01:40;100631.31;;;22.79;30.37
25560;BME280;13450;49.374;8.584;2023-03-16T13:04:12;100630.34;;;23.60;31.84
25560;BME280;13450;49.374;8.584;2023-03-16T13:06:50;100625.28;;;24.36;28.50
25560;BME280;13450;49.374;8.584;2023-03-16T13:09:23;100610.19;;;25.62;30.25
25560;BME280;13450;49.374;8.584;2023-03-16T13:11:49;100613.75;;;27.21;27.34
25560;BME280;13450;49.374;8.584;2023-03-16T13:14:41;100610.78;;;27.80;24.17
25560;BME280;13450;49.374;8.584;2023-03-16T13:20:04;100614.06;;;28.49;23.25
25560;BME280;13450;49.374;8.584;2023-03-16T13:22:47;100609.84;;;28.38;24.36
25560;BME280;13450;49.374;8.584;2023-03-16T13:27:57;100601.81;;;27.07;24.58
25560;BME280;13450;49.374;8.584;2023-03-16T13:30:27;100600.28;;;27.83;24.94
25560;BME280;13450;49.374;8.584;2023-03-16T13:32:55;100599.47;;;28.35;27.08
25560;BME280;13450;49.374;8.584;2023-03-16T13:35:25;100609.06;;;28.51;23.96
25560;BME280;13450;49.374;8.584;2023-03-16T13:37:52;100608.09;;;29.31;24.02
25560;BME280;13450;49.374;8.584;2023-03-16T13:40:25;100601.38;;;29.09;21.63
25560;BME280;13450;49.374;8.584;2023-03-16T13:42:51;100590.56;;;31.05;22.76
25560;BME280;13450;49.374;8.584;2023-03-16T13:45:32;100589.50;;;29.51;21.65
25560;BME280;13450;49.374;8.584;2023-03-16T13:47:59;100569.75;;;28.65;22.53
25560;BME280;13450;49.374;8.584;2023-03-16T13:50:26;100571.50;;;29.17;23.07
25560;BME280;13450;49.374;8.584;2023-03-16T13:53:01;100560.84;;;27.92;22.58
25560;BME280;13450;49.374;8.584;2023-03-16T13:55:33;100555.59;;;26.95;24.45
25560;BME280;13450;49.374;8.584;2023-03-16T13:58:02;100551.41;;;24.62;26.93
25560;BME280;13450;49.374;8.584;2023-03-16T14:00:30;100555.94;;;22.57;29.53
25560;BME280;13450;49.374;8.584;2023-03-16T14:02:59;100550.06;;;22.81;32.19
25560;BME280;13450;49.374;8.584;2023-03-16T14:05:32;100544.84;;;22.37;32.31
25560;BME280;13450;49.374;8.584;2023-03-16T14:07:58;100538.13;;;22.98;30.84
25560;BME280;13450;49.374;8.584;2023-03-16T14:10:30;100533.16;;;22.36;29.45